createdAt,value
2023-02-15T00:00:19.709Z,102454.04
2023-02-15T00:03:07.937Z,102459.73
2023-02-15T00:05:36.392Z,102455.73
2023-02-15T00:08:04.953Z,102453.67
2023-02-15T00:10:33.158Z,102449.29
2023-02-15T00:13:01.648Z,102454.28
2023-02-15T00:15:30.854Z,102458.21
2023-02-15T00:17:59.031Z,102455.83
2023-02-15T00:20:27.315Z,102461.34
2023-02-15T00:22:55.904Z,102456.25
2023-02-15T00:25:24.306Z,102460.92
2023-02-15T00:27:52.569Z,102460.07
2023-02-15T00:30:21.129Z,102465.77
2023-02-15T00:32:49.863Z,102469.04
2023-02-15T00:35:18.441Z,102469.29
2023-02-15T00:37:46.614Z,102465.67
2023-02-15T00:40:15.206Z,102465.40
2023-02-15T00:42:43.691Z,102462.48
2023-02-15T00:45:11.874Z,102462.34
2023-02-15T00:47:40.360Z,102463.29
2023-02-15T00:50:09.279Z,102468.65
2023-02-15T00:52:37.540Z,102469.42
2023-02-15T00:55:06.182Z,102473.34
2023-02-15T00:57:34.441Z,102472.49
2023-02-15T01:00:03.638Z,102465.43
2023-02-15T01:02:32.200Z,102469.89
2023-02-15T01:05:00.587Z,102467.27
2023-02-15T01:07:28.970Z,102466.96
2023-02-15T01:09:57.458Z,102466.08
2023-02-15T01:12:25.944Z,102470.52
2023-02-15T01:14:54.435Z,102470.35
2023-02-15T01:17:22.612Z,102469.14
2023-02-15T01:19:52.438Z,102467.92
2023-02-15T01:22:20.921Z,102470.55
2023-02-15T01:24:52.989Z,102470.38
2023-02-15T01:27:21.170Z,102469.33
2023-02-15T01:29:49.804Z,102470.39
2023-02-15T01:32:18.142Z,102465.29
2023-02-15T01:34:46.525Z,102470.09
2023-02-15T01:37:15.322Z,102468.04
2023-02-15T01:39:43.802Z,102469.13
2023-02-15T01:42:13.324Z,102472.33
2023-02-15T01:44:44.263Z,102470.79
2023-02-15T01:47:17.513Z,102470.66
2023-02-15T01:49:49.005Z,102472.47
2023-02-15T01:52:19.904Z,102472.36
2023-02-15T01:54:49.375Z,102470.25
2023-02-15T01:57:25.212Z,102470.98
2023-02-15T01:59:57.993Z,102471.90
2023-02-15T02:02:28.435Z,102471.73
2023-02-15T02:05:07.612Z,102470.73
2023-02-15T02:07:42.801Z,102471.47
2023-02-15T02:10:14.658Z,102469.58
2023-02-15T02:12:46.217Z,102468.04
2023-02-15T02:15:15.906Z,102468.56
2023-02-15T02:18:03.247Z,102463.67
2023-02-15T02:20:37.666Z,102464.42
2023-02-15T02:23:23.960Z,102463.38
2023-02-15T02:26:19.530Z,102464.07
2023-02-15T02:29:28.850Z,102465.84
2023-02-15T02:32:23.467Z,102466.21
2023-02-15T02:35:02.190Z,102467.45
2023-02-15T02:37:57.084Z,102474.39
2023-02-15T02:40:57.592Z,102477.39
2023-02-15T02:43:39.688Z,102480.58
2023-02-15T02:46:16.543Z,102484.48
2023-02-15T02:48:45.160Z,102488.41
2023-02-15T02:51:15.280Z,102488.77
2023-02-15T02:53:44.178Z,102487.40
2023-02-15T02:56:20.849Z,102490.10
2023-02-15T02:59:05.711Z,102490.29
2023-02-15T03:01:47.772Z,102493.14
2023-02-15T03:04:29.914Z,102495.10
2023-02-15T03:07:06.170Z,102492.84
2023-02-15T03:09:44.791Z,102497.81
2023-02-15T03:12:22.907Z,102494.11
2023-02-15T03:14:58.752Z,102496.24
2023-02-15T03:17:30.206Z,102492.56
2023-02-15T03:20:03.373Z,102493.11
2023-02-15T03:22:44.381Z,102494.33
2023-02-15T03:25:22.786Z,102495.73
2023-02-15T03:27:55.979Z,102494.34
2023-02-15T03:30:26.741Z,102495.40
2023-02-15T03:32:59.096Z,102493.45
2023-02-15T03:35:44.781Z,102490.45
2023-02-15T03:38:18.992Z,102489.73
2023-02-15T03:41:07.956Z,102490.61
2023-02-15T03:43:56.796Z,102494.66
2023-02-15T03:46:35.076Z,102500.11
2023-02-15T03:49:22.631Z,102495.33
2023-02-15T03:51:54.901Z,102499.03
2023-02-15T03:54:43.675Z,102497.98
2023-02-15T03:57:38.747Z,102503.43
2023-02-15T04:00:37.626Z,102500.79
2023-02-15T04:03:12.011Z,102503.25
2023-02-15T04:05:41.528Z,102506.23
2023-02-15T04:08:10.799Z,102503.58
2023-02-15T04:10:54.535Z,102507.81
2023-02-15T04:13:30.574Z,102505.52
2023-02-15T04:16:05.768Z,102508.88
2023-02-15T04:19:00.082Z,102503.59
2023-02-15T04:21:49.952Z,102508.70
2023-02-15T04:24:37.145Z,102507.67
2023-02-15T04:27:07.043Z,102511.02
2023-02-15T04:29:35.146Z,102512.79
2023-02-15T04:32:04.031Z,102514.20
2023-02-15T04:34:32.224Z,102515.05
2023-02-15T04:37:00.420Z,102518.39
2023-02-15T04:39:28.688Z,102521.36
2023-02-15T04:41:57.174Z,102524.19
2023-02-15T04:44:25.964Z,102523.65
2023-02-15T04:46:54.142Z,102525.42
2023-02-15T04:49:22.632Z,102526.12
2023-02-15T04:51:51.432Z,102531.77
2023-02-15T04:54:19.817Z,102531.77
2023-02-15T04:56:48.198Z,102539.21
2023-02-15T04:59:16.680Z,102539.59
2023-02-15T05:01:44.864Z,102540.66
2023-02-15T05:04:13.584Z,102545.95
2023-02-15T05:06:42.141Z,102547.04
2023-02-15T05:09:15.102Z,102551.98
2023-02-15T05:11:43.726Z,102556.77
2023-02-15T05:14:12.010Z,102556.61
2023-02-15T05:16:40.828Z,102558.38
2023-02-15T05:19:09.280Z,102561.21
2023-02-15T05:21:37.884Z,102565.09
2023-02-15T05:24:26.723Z,102568.63
2023-02-15T05:27:13.732Z,102570.42
2023-02-15T05:29:42.528Z,102579.41
2023-02-15T05:32:14.699Z,102578.70
2023-02-15T05:34:43.402Z,102582.39
2023-02-15T05:37:11.784Z,102588.73
2023-02-15T05:39:40.161Z,102589.41
2023-02-15T05:42:08.757Z,102592.05
2023-02-15T05:44:37.051Z,102602.08
2023-02-15T05:47:08.345Z,102599.73
2023-02-15T05:49:37.297Z,102605.15
2023-02-15T05:52:06.080Z,102603.39
2023-02-15T05:54:34.462Z,102606.67
2023-02-15T05:57:02.646Z,102603.80
2023-02-15T05:59:31.132Z,102601.98
2023-02-15T06:01:59.568Z,102603.34
2023-02-15T06:04:28.183Z,102597.79
2023-02-15T06:06:56.587Z,102592.95
2023-02-15T06:09:24.973Z,102592.17
2023-02-15T06:11:53.268Z,102585.02
2023-02-15T06:14:22.263Z,102586.69
2023-02-15T06:16:50.434Z,102582.67
2023-02-15T06:19:18.615Z,102580.42
2023-02-15T06:21:46.800Z,102584.48
2023-02-15T06:24:14.978Z,102584.60
2023-02-15T06:26:43.367Z,102585.27
2023-02-15T06:29:11.537Z,102584.14
2023-02-15T06:31:39.917Z,102586.41
2023-02-15T06:34:09.233Z,102589.02
2023-02-15T06:36:37.975Z,102584.39
2023-02-15T06:39:06.211Z,102588.77
2023-02-15T06:41:34.692Z,102590.65
2023-02-15T06:44:03.275Z,102586.52
2023-02-15T06:46:31.688Z,102591.40
2023-02-15T06:49:00.047Z,102587.85
2023-02-15T06:51:28.642Z,102588.70
2023-02-15T06:53:57.121Z,102588.61
2023-02-15T06:56:25.308Z,102583.53
2023-02-15T06:58:53.990Z,102585.13
2023-02-15T07:01:22.433Z,102581.79
2023-02-15T07:03:51.167Z,102582.33
2023-02-15T07:06:19.346Z,102581.15
2023-02-15T07:08:47.733Z,102570.80
2023-02-15T07:11:35.154Z,102572.58
2023-02-15T07:14:03.531Z,102578.16
2023-02-15T07:16:31.779Z,102575.55
2023-02-15T07:18:59.996Z,102574.53
2023-02-15T07:21:28.315Z,102574.04
2023-02-15T07:23:59.741Z,102571.59
2023-02-15T07:26:27.908Z,102574.33
2023-02-15T07:28:56.188Z,102578.35
2023-02-15T07:31:24.706Z,102577.23
2023-02-15T07:33:53.061Z,102579.73
2023-02-15T07:36:21.753Z,102578.22
2023-02-15T07:38:50.144Z,102578.42
2023-02-15T07:41:18.440Z,102573.98
2023-02-15T07:43:46.744Z,102576.24
2023-02-15T07:46:17.573Z,102575.58
2023-02-15T07:48:45.929Z,102571.52
2023-02-15T07:51:15.859Z,102574.92
2023-02-15T07:53:44.446Z,102571.64
2023-02-15T07:56:14.081Z,102571.97
2023-02-15T07:58:59.424Z,102570.89
2023-02-15T08:01:33.566Z,102574.14
2023-02-15T08:04:02.439Z,102573.39
2023-02-15T08:06:34.396Z,102576.16
2023-02-15T08:09:08.055Z,102577.70
2023-02-15T08:11:40.892Z,102585.09
2023-02-15T08:14:28.618Z,102583.39
2023-02-15T08:17:03.467Z,102585.79
2023-02-15T08:19:33.596Z,102588.73
2023-02-15T08:22:05.171Z,102596.57
2023-02-15T08:24:37.667Z,102594.71
2023-02-15T08:27:07.763Z,102597.71
2023-02-15T08:29:37.746Z,102594.94
2023-02-15T08:32:13.090Z,102592.90
2023-02-15T08:34:43.062Z,102595.63
2023-02-15T08:37:11.506Z,102593.06
2023-02-15T08:39:40.208Z,102592.98
2023-02-15T08:42:08.578Z,102595.60
2023-02-15T08:44:36.989Z,102593.48
2023-02-15T08:47:05.344Z,102594.59
2023-02-15T08:49:33.849Z,102596.27
2023-02-15T08:52:02.321Z,102588.02
2023-02-15T08:54:31.117Z,102590.83
2023-02-15T08:57:00.697Z,102582.38
2023-02-15T08:59:29.427Z,102582.84
2023-02-15T09:01:58.182Z,102581.70
2023-02-15T09:04:26.599Z,102579.52
2023-02-15T09:06:54.780Z,102576.85
2023-02-15T09:09:23.368Z,102581.20
2023-02-15T09:11:58.821Z,102587.80
2023-02-15T09:14:28.579Z,102588.93
2023-02-15T09:16:57.657Z,102589.48
2023-02-15T09:19:26.333Z,102588.05
2023-02-15T09:21:54.980Z,102593.52
2023-02-15T09:24:23.293Z,102589.25
2023-02-15T09:26:51.790Z,102585.85
2023-02-15T09:29:20.962Z,102581.79
2023-02-15T09:31:51.601Z,102576.48
2023-02-15T09:34:22.352Z,102574.48
2023-02-15T09:36:52.040Z,102577.48
2023-02-15T09:39:24.904Z,102577.70
2023-02-15T09:41:53.949Z,102578.72
2023-02-15T09:44:25.208Z,102573.84
2023-02-15T09:47:06.489Z,102562.33
2023-02-15T09:49:40.697Z,102560.21
2023-02-15T09:52:37.735Z,102559.92
2023-02-15T09:55:20.968Z,102558.67
2023-02-15T09:58:14.112Z,102558.60
2023-02-15T10:00:56.532Z,102558.23
2023-02-15T10:03:43.379Z,102555.66
2023-02-15T10:06:36.475Z,102544.48
2023-02-15T10:09:26.037Z,102544.39
2023-02-15T10:12:07.111Z,102541.67
2023-02-15T10:15:03.739Z,102534.50
2023-02-15T10:18:17.055Z,102540.00
2023-02-15T10:21:04.325Z,102542.48
2023-02-15T10:23:51.171Z,102551.98
2023-02-15T10:26:35.621Z,102560.63
2023-02-15T10:29:06.566Z,102552.98
2023-02-15T10:31:48.069Z,102554.20
2023-02-15T10:34:20.758Z,102548.81
2023-02-15T10:37:25.949Z,102545.41
2023-02-15T10:40:23.303Z,102549.55
2023-02-15T10:43:01.926Z,102542.69
2023-02-15T10:45:49.252Z,102536.98
2023-02-15T10:48:23.552Z,102537.80
2023-02-15T10:50:55.197Z,102534.39
2023-02-15T10:53:26.462Z,102529.28
2023-02-15T10:56:20.475Z,102535.83
2023-02-15T10:59:11.836Z,102532.23
2023-02-15T11:02:15.634Z,102526.40
2023-02-15T11:05:04.151Z,102525.11
2023-02-15T11:07:44.538Z,102517.55
2023-02-15T11:10:42.084Z,102518.20
2023-02-15T11:13:15.991Z,102507.16
2023-02-15T11:15:50.339Z,102499.30
2023-02-15T11:18:43.233Z,102509.62
2023-02-15T11:21:14.097Z,102515.36
2023-02-15T11:23:45.904Z,102506.27
2023-02-15T11:26:21.609Z,102505.23
2023-02-15T11:28:56.346Z,102513.41
2023-02-15T11:31:28.045Z,102513.49
2023-02-15T11:34:13.283Z,102500.25
2023-02-15T11:36:44.517Z,102492.15
2023-02-15T11:39:18.527Z,102493.50
2023-02-15T11:41:53.362Z,102507.83
2023-02-15T11:44:48.354Z,102502.26
2023-02-15T11:47:16.577Z,102500.69
2023-02-15T11:49:47.052Z,102495.30
2023-02-15T11:52:18.823Z,102492.58
2023-02-15T11:54:53.116Z,102496.63
2023-02-15T11:57:23.084Z,102493.05
2023-02-15T12:00:05.143Z,102496.79
2023-02-15T12:02:38.466Z,102493.29
2023-02-15T12:05:15.135Z,102490.57
2023-02-15T12:08:07.000Z,102482.33
2023-02-15T12:10:41.384Z,102483.02
2023-02-15T12:13:14.045Z,102478.79
2023-02-15T12:15:46.669Z,102477.80
2023-02-15T12:18:25.669Z,102487.48
2023-02-15T12:20:54.178Z,102486.35
2023-02-15T12:23:23.209Z,102484.24
2023-02-15T12:25:57.039Z,102483.10
2023-02-15T12:28:32.606Z,102484.98
2023-02-15T12:31:03.954Z,102488.35
2023-02-15T12:33:46.651Z,102482.23
2023-02-15T12:36:23.690Z,102481.11
2023-02-15T12:39:17.410Z,102478.66
2023-02-15T12:41:58.179Z,102478.23
2023-02-15T12:44:38.238Z,102478.60
2023-02-15T12:47:20.439Z,102480.95
2023-02-15T12:50:21.355Z,102480.23
2023-02-15T12:52:52.811Z,102476.86
2023-02-15T12:55:33.167Z,102473.29
2023-02-15T12:58:24.688Z,102474.91
2023-02-15T13:01:18.903Z,102471.41
2023-02-15T13:04:00.966Z,102471.80
2023-02-15T13:06:33.327Z,102470.63
2023-02-15T13:09:14.505Z,102469.48
2023-02-15T13:11:45.747Z,102465.86
2023-02-15T13:14:23.683Z,102465.02
2023-02-15T13:16:54.635Z,102465.61
2023-02-15T13:19:46.119Z,102459.40
2023-02-15T13:22:17.976Z,102460.36
2023-02-15T13:25:02.741Z,102460.34
2023-02-15T13:27:41.045Z,102455.88
2023-02-15T13:30:22.479Z,102452.13
2023-02-15T13:33:00.944Z,102454.94
2023-02-15T13:35:39.457Z,102463.67
2023-02-15T13:38:38.846Z,102463.68
2023-02-15T13:41:17.977Z,102466.39
2023-02-15T13:44:04.272Z,102465.58
2023-02-15T13:46:38.692Z,102469.16
2023-02-15T13:49:27.339Z,102471.06
2023-02-15T13:52:05.548Z,102471.08
2023-02-15T13:54:54.705Z,102472.86
2023-02-15T13:57:32.204Z,102470.02
2023-02-15T14:00:09.798Z,102468.66
2023-02-15T14:03:14.305Z,102474.80
2023-02-15T14:06:07.352Z,102476.73
2023-02-15T14:09:13.191Z,102469.48
2023-02-15T14:12:13.701Z,102474.19
2023-02-15T14:15:16.817Z,102477.92
2023-02-15T14:18:09.311Z,102483.89
2023-02-15T14:20:57.570Z,102484.64
2023-02-15T14:23:50.805Z,102478.15
2023-02-15T14:26:26.658Z,102467.02
2023-02-15T14:29:06.092Z,102463.70
2023-02-15T14:31:41.073Z,102467.02
2023-02-15T14:34:22.329Z,102472.09
2023-02-15T14:36:52.983Z,102475.73
2023-02-15T14:39:48.845Z,102481.14
2023-02-15T14:42:40.154Z,102484.10
2023-02-15T14:45:22.716Z,102489.09
2023-02-15T14:48:06.458Z,102492.30
2023-02-15T14:50:45.068Z,102497.82
2023-02-15T14:53:33.677Z,102500.35
2023-02-15T14:56:19.338Z,102495.90
2023-02-15T14:58:53.562Z,102499.41
2023-02-15T15:01:33.020Z,102504.45
2023-02-15T15:04:09.976Z,102509.34
2023-02-15T15:06:41.869Z,102509.99
2023-02-15T15:09:10.235Z,102511.80
2023-02-15T15:11:44.045Z,102512.46
2023-02-15T15:14:33.310Z,102511.31
2023-02-15T15:17:04.920Z,102514.10
2023-02-15T15:19:52.621Z,102513.98
2023-02-15T15:22:26.654Z,102520.26
2023-02-15T15:25:22.405Z,102519.17
2023-02-15T15:27:54.437Z,102522.48
2023-02-15T15:30:22.808Z,102526.99
2023-02-15T15:32:57.884Z,102529.45
2023-02-15T15:35:48.169Z,102533.29
2023-02-15T15:38:47.971Z,102530.35
2023-02-15T15:41:20.443Z,102531.66
2023-02-15T15:44:07.567Z,102535.27
2023-02-15T15:46:54.775Z,102543.02
2023-02-15T15:49:29.368Z,102539.98
2023-02-15T15:52:02.742Z,102544.16
2023-02-15T15:54:31.298Z,102542.48
2023-02-15T15:57:03.627Z,102543.98
2023-02-15T15:59:35.279Z,102544.34
2023-02-15T16:02:16.464Z,102548.57
2023-02-15T16:04:47.087Z,102547.67
2023-02-15T16:07:18.492Z,102554.16
2023-02-15T16:10:20.443Z,102556.02
2023-02-15T16:12:50.698Z,102556.80
2023-02-15T16:15:24.679Z,102560.98
2023-02-15T16:17:57.380Z,102563.05
2023-02-15T16:20:27.808Z,102567.20
2023-02-15T16:23:10.600Z,102571.81
2023-02-15T16:25:49.626Z,102577.54
2023-02-15T16:28:19.672Z,102577.48
2023-02-15T16:31:07.219Z,102582.89
2023-02-15T16:33:40.324Z,102583.41
2023-02-15T16:36:13.880Z,102588.92
2023-02-15T16:38:44.808Z,102586.83
2023-02-15T16:41:22.404Z,102586.85
2023-02-15T16:43:53.908Z,102589.95
2023-02-15T16:46:29.761Z,102593.44
2023-02-15T16:49:02.980Z,102594.38
2023-02-15T16:51:35.288Z,102597.36
2023-02-15T16:54:24.642Z,102595.83
2023-02-15T16:56:52.939Z,102602.07
2023-02-15T16:59:44.492Z,102603.44
2023-02-15T17:02:43.127Z,102601.86
2023-02-15T17:05:19.565Z,102596.79
2023-02-15T17:08:08.168Z,102595.53
2023-02-15T17:10:42.972Z,102593.10
2023-02-15T17:13:16.561Z,102591.39
2023-02-15T17:16:03.320Z,102593.92
2023-02-15T17:18:54.984Z,102593.73
2023-02-15T17:21:29.061Z,102597.21
2023-02-15T17:24:01.687Z,102598.41
2023-02-15T17:26:38.756Z,102602.66
2023-02-15T17:29:36.511Z,102601.35
2023-02-15T17:32:13.931Z,102602.27
2023-02-15T17:34:45.258Z,102605.27
2023-02-15T17:37:24.993Z,102606.73
2023-02-15T17:39:53.996Z,102612.36
2023-02-15T17:42:22.481Z,102612.35
2023-02-15T17:44:51.181Z,102617.54
2023-02-15T17:47:25.536Z,102617.98
2023-02-15T17:49:55.442Z,102620.63
2023-02-15T17:52:28.707Z,102622.06
2023-02-15T17:55:18.284Z,102623.34
2023-02-15T17:57:46.564Z,102623.58
2023-02-15T18:00:35.106Z,102625.19
2023-02-15T18:03:22.833Z,102623.31
2023-02-15T18:06:14.698Z,102624.01
2023-02-15T18:09:05.038Z,102625.41
2023-02-15T18:11:39.464Z,102625.73
2023-02-15T18:14:10.304Z,102628.23
2023-02-15T18:16:43.723Z,102633.05
2023-02-15T18:19:19.250Z,102635.16
2023-02-15T18:21:55.723Z,102636.54
2023-02-15T18:24:26.773Z,102633.80
2023-02-15T18:26:55.672Z,102635.35
2023-02-15T18:29:25.093Z,102636.16
2023-02-15T18:31:57.637Z,102632.58
2023-02-15T18:34:31.257Z,102632.02
2023-02-15T18:37:03.732Z,102632.35
2023-02-15T18:39:48.590Z,102632.16
2023-02-15T18:42:24.558Z,102630.18
2023-02-15T18:44:56.671Z,102635.92
2023-02-15T18:47:25.296Z,102635.49
2023-02-15T18:49:55.536Z,102634.09
2023-02-15T18:52:36.471Z,102633.16
2023-02-15T18:55:16.135Z,102632.56
2023-02-15T18:57:48.713Z,102628.94
2023-02-15T19:00:18.039Z,102632.89
2023-02-15T19:02:47.268Z,102630.51
2023-02-15T19:05:18.302Z,102634.65
2023-02-15T19:07:48.752Z,102635.42
2023-02-15T19:10:24.671Z,102640.77
2023-02-15T19:12:56.933Z,102641.18
2023-02-15T19:15:33.907Z,102643.16
2023-02-15T19:18:02.122Z,102638.64
2023-02-15T19:20:40.160Z,102638.89
2023-02-15T19:23:19.600Z,102638.98
2023-02-15T19:25:49.208Z,102642.42
2023-02-15T19:28:22.243Z,102643.33
2023-02-15T19:30:50.440Z,102643.59
2023-02-15T19:33:23.859Z,102643.10
2023-02-15T19:35:59.219Z,102642.98
2023-02-15T19:38:35.194Z,102644.23
2023-02-15T19:41:08.854Z,102641.26
2023-02-15T19:43:39.257Z,102642.02
2023-02-15T19:46:07.733Z,102642.38
2023-02-15T19:48:36.231Z,102640.64
2023-02-15T19:51:05.030Z,102638.36
2023-02-15T19:53:33.723Z,102640.67
2023-02-15T19:56:02.460Z,102639.14
2023-02-15T19:58:31.099Z,102637.59
2023-02-15T20:00:59.786Z,102635.69
2023-02-15T20:03:28.177Z,102632.21
2023-02-15T20:05:56.562Z,102637.34
2023-02-15T20:08:25.529Z,102636.48
2023-02-15T20:10:53.949Z,102635.98
2023-02-15T20:13:24.988Z,102637.06
2023-02-15T20:15:53.239Z,102639.92
2023-02-15T20:18:22.687Z,102637.88
2023-02-15T20:20:54.037Z,102637.23
2023-02-15T20:23:27.422Z,102639.23
2023-02-15T20:26:03.286Z,102634.16
2023-02-15T20:28:31.975Z,102634.60
2023-02-15T20:31:00.675Z,102630.08
2023-02-15T20:33:31.707Z,102633.66
2023-02-15T20:36:00.192Z,102628.55
2023-02-15T20:38:32.531Z,102625.05
2023-02-15T20:41:20.507Z,102624.04
2023-02-15T20:43:49.189Z,102627.38
2023-02-15T20:46:18.217Z,102627.39
2023-02-15T20:48:46.779Z,102629.86
2023-02-15T20:51:21.142Z,102629.31
2023-02-15T20:53:49.400Z,102629.49
2023-02-15T20:56:23.791Z,102633.70
2023-02-15T20:58:53.826Z,102631.38
2023-02-15T21:01:22.137Z,102628.17
2023-02-15T21:03:51.598Z,102630.38
2023-02-15T21:06:19.909Z,102634.88
2023-02-15T21:08:48.301Z,102632.70
2023-02-15T21:11:20.843Z,102632.78
2023-02-15T21:13:50.691Z,102631.66
2023-02-15T21:16:19.409Z,102627.04
2023-02-15T21:18:47.661Z,102629.10
2023-02-15T21:21:23.636Z,102628.48
2023-02-15T21:23:53.455Z,102623.58
2023-02-15T21:26:23.151Z,102630.30
2023-02-15T21:28:51.798Z,102627.36
2023-02-15T21:31:22.760Z,102631.45
2023-02-15T21:33:52.391Z,102629.75
2023-02-15T21:36:25.291Z,102635.30
2023-02-15T21:38:54.080Z,102636.99
2023-02-15T21:41:43.333Z,102636.59
2023-02-15T21:44:41.806Z,102633.17
2023-02-15T21:47:41.413Z,102634.36
2023-02-15T21:50:36.094Z,102636.23
2023-02-15T21:53:05.504Z,102634.39
2023-02-15T21:55:33.994Z,102637.98
2023-02-15T21:58:02.595Z,102640.27
2023-02-15T22:00:31.209Z,102640.60
2023-02-15T22:03:01.283Z,102641.11
2023-02-15T22:05:32.212Z,102640.61
2023-02-15T22:08:00.952Z,102639.23
2023-02-15T22:10:31.649Z,102634.45
2023-02-15T22:13:01.881Z,102638.48
2023-02-15T22:15:37.856Z,102633.89
2023-02-15T22:18:06.731Z,102637.41
2023-02-15T22:20:35.118Z,102634.40
2023-02-15T22:23:03.612Z,102631.75
2023-02-15T22:25:32.090Z,102627.05
2023-02-15T22:28:00.270Z,102627.81
2023-02-15T22:30:37.103Z,102629.92
2023-02-15T22:33:05.430Z,102631.86
2023-02-15T22:35:37.016Z,102625.21
2023-02-15T22:38:05.161Z,102622.80
2023-02-15T22:40:34.564Z,102620.48
2023-02-15T22:43:05.819Z,102622.42
2023-02-15T22:45:35.901Z,102624.34
2023-02-15T22:48:04.430Z,102623.80
2023-02-15T22:50:33.425Z,102622.55
2023-02-15T22:53:03.766Z,102623.96
2023-02-15T22:55:36.554Z,102624.14
2023-02-15T22:58:05.622Z,102624.30
2023-02-15T23:00:39.760Z,102625.50
2023-02-15T23:03:34.629Z,102626.23
2023-02-15T23:06:04.462Z,102627.02
2023-02-15T23:08:32.644Z,102625.66
2023-02-15T23:11:01.027Z,102620.91
2023-02-15T23:13:33.276Z,102624.39
2023-02-15T23:16:03.592Z,102617.98
2023-02-15T23:18:40.004Z,102615.14
2023-02-15T23:21:28.142Z,102612.14
2023-02-15T23:24:02.463Z,102613.17
2023-02-15T23:26:31.727Z,102613.67
2023-02-15T23:29:01.644Z,102611.52
2023-02-15T23:31:34.247Z,102612.54
2023-02-15T23:34:13.050Z,102605.52
2023-02-15T23:36:41.364Z,102609.06
2023-02-15T23:39:38.708Z,102604.61
2023-02-15T23:42:14.689Z,102600.52
2023-02-15T23:44:48.169Z,102597.59
2023-02-15T23:47:44.383Z,102595.53
2023-02-15T23:50:26.789Z,102592.20
2023-02-15T23:52:56.631Z,102591.33
2023-02-15T23:55:38.089Z,102592.39
2023-02-15T23:58:11.114Z,102599.64
